Airfield :
LOGIN :

Register | Disclaimer

   EN    FR    IT 

 










Legend :    VFR   Marginal VFR   IFR   Intensive IFR   Very Intensive IFR
Visi :
Ceiling :
>= 8 km
>= 3000ft
5 to 8 km
1000 to 3000 ft
1500m to 5 km
500 to 1000 ft
800 to 1500m
200 to 500 ft
< 800m
< 200 ft
Symbols :   Thunderstorms  Fog  Heavy snow  Heavy precipitations  Wind > 20 kt
SIGMETs :     Misc.  Thunderstorms  Icing  Turbulence  Mountain Waves  Volcanic Ashes






- Airport Elevation : 247 ft
- IATA code : BLL


EKBI - Billund

CURRENT METAR :
  • 190720Z AUTO 30008KT 9999 NCD 03/01 Q1029

EXPIRED METARs :
  • 190650Z AUTO 29008KT 9999 NCD 02/01 Q1028
  • 190620Z AUTO 29008KT 9999 NCD 03/01 Q1028
  • 190550Z AUTO 29007KT 9999 NCD 02/01 Q1027
  • 190520Z AUTO 28007KT 260V320 9999 NCD 03/02 Q1027
  • 190450Z AUTO 28008KT 9999 FEW028/// 02/01 Q1026

TAF TAF EKBI
Valid from the 19 at 06:00 until the 20 at 06:00 UTC


190505Z 1906/2006 28008KT 9999 FEW020
TEMPO 1918/2006 2500 BR



MET'MAP, your aeronautical weather chart ! - Copyright ORBIFLY December 2007 - Disclaimer

ORBIFLY MET'MAP TEAM :

Programming & Development : Alexandra Zaïnal
Concept & original design : Baudouin d'Aumeries
Assistance for programming : Marc-Olivier Méhu
Technical & hardware support : Manuel Goepfert

Contact : metmap@orbifly.com




SOURCES & CREDITS :

   NOAA